Friday, July 20, 2018, 4:54 AM EDT
Back to Local

KPEO, Penn Yan Airport

Location: Penn Yan, NY, United States Lat: 42.65
Local Time: 4:54 AM EDT ( 8:54 GMT) Lon: -77.05
Time Zone: US/Eastern Elev: 977 ft

Show me the last for .
Show Decoded

2018-07-20 03:53 METAR KPEO 200753Z AUTO 22004KT 10SM CLR 17/14 A3010 RMK AO2 SLP187 T01670139 =
2018-07-20 02:53 METAR KPEO 200653Z AUTO 22003KT 10SM CLR 17/14 A3010 RMK AO2 SLP187 T01670139 =
2018-07-20 01:53 METAR KPEO 200553Z AUTO 22007KT 10SM CLR 18/14 A3010 RMK AO2 SLP188 T01830139
                 10250 20167 53001 =
2018-07-20 00:53 METAR KPEO 200453Z AUTO 23005KT 10SM CLR 18/14 A3010 RMK AO2 SLP188 T01780139
                 402670117 =
2018-07-19 23:53 METAR KPEO 200353Z AUTO 23004KT 10SM CLR 17/14 A3010 RMK AO2 SLP187 T01720139 =
2018-07-19 22:53 METAR KPEO 200253Z AUTO 21003KT 10SM CLR 18/12 A3010 RMK AO2 SLP187 T01780117
                 53006 =
2018-07-19 21:53 METAR KPEO 200153Z AUTO 00000KT 10SM CLR 18/11 A3009 RMK AO2 SLP185 T01780111 =
2018-07-19 20:53 METAR KPEO 200053Z AUTO 11003KT 10SM CLR 21/11 A3008 RMK AO2 SLP182 T02060111 =
2018-07-19 19:53 METAR KPEO 192353Z AUTO 07004KT 10SM CLR 25/11 A3008 RMK AO2 SLP181 T02500111
                 10267 20250 55001 =
2018-07-19 18:53 METAR KPEO 192253Z AUTO VRB04KT 10SM CLR 26/10 A3008 RMK AO2 SLP180 T02610100 =
2018-07-19 17:53 METAR KPEO 192153Z AUTO 00000KT 10SM CLR 26/09 A3008 RMK AO2 SLP180 T02610089 =
2018-07-19 16:53 METAR KPEO 192053Z AUTO 00000KT 10SM CLR 27/09 A3009 RMK AO2 SLP182 T02670094
                 56015 =
2018-07-19 15:53 METAR KPEO 191953Z AUTO 00000KT 10SM CLR 26/10 A3010 RMK AO2 SLP188 T02560100 =
2018-07-19 14:53 METAR KPEO 191853Z AUTO 00000KT 10SM CLR 25/08 A3011 RMK AO2 SLP192 T02500083 =
2018-07-19 13:53 METAR KPEO 191753Z AUTO VRB04KT 10SM CLR 25/08 A3013 RMK AO2 SLP198 T02500078
                 10250 20150 58005 =
2018-07-19 12:53 METAR KPEO 191653Z AUTO VRB04KT 10SM CLR 24/09 A3014 RMK AO2 SLP202 T02440089 =
2018-07-19 11:53 METAR KPEO 191553Z AUTO 14004KT 10SM CLR 23/08 A3014 RMK AO2 SLP202 T02280083 =
2018-07-19 10:53 METAR KPEO 191453Z AUTO 17003KT 10SM CLR 22/09 A3014 RMK AO2 SLP205 T02220089
                 50000 =
2018-07-19 09:53 METAR KPEO 191353Z AUTO 23005KT 10SM CLR 21/10 A3015 RMK AO2 SLP204 T02060100 =
2018-07-19 08:53 METAR KPEO 191253Z AUTO 24006KT 10SM CLR 18/12 A3015 RMK AO2 SLP209 T01780117 =
2018-07-19 07:53 METAR KPEO 191153Z AUTO 23006KT 10SM CLR 15/11 A3014 RMK AO2 SLP204 T01500111
                 10150 20122 51011 =
2018-07-19 06:53 METAR KPEO 191053Z AUTO 23006KT 10SM CLR 13/11 A3013 RMK AO2 SLP201 T01330111 =
2018-07-19 05:53 METAR KPEO 190953Z AUTO 23005KT 10SM CLR 12/11 A3012 RMK AO2 SLP198 T01220106 =

Support USWX by starting your Amazon purchase here.